Terminal Aerodrome Forecast
Issued by NWS Mobile, AL

Home | Current Version | Previous Version | Text Only | Print | Product List | Glossary On
Versions: 1 2 3 4 5 6 7 8 9 10 11 12 13 14 15 16 17 18 19 20 21 22 23
000
FTUS44 KMOB 040538
TAFMOB
TAF
KMOB 040538Z 0406/0506 09004KT P6SM FEW025 FEW080
     FM041000 09003KT 5SM BR FEW025 FEW070
     FM041500 13013G20KT P6SM SCT050 SCT250
     FM050000 15007KT P6SM SCT050 SCT250=

USA.gov is the U.S. government's official web portal to all federal, state and local government web resources and services.